sensor_id;sensor_type;location;lat;lon;timestamp;P1;durP1;ratioP1;P2;durP2;ratioP2
73675;SDS011;61975;48.660;10.164;2022-12-18T00:01:58;25.37;;;9.77;;
73675;SDS011;61975;48.660;10.164;2022-12-18T00:04:27;29.08;;;11.43;;
73675;SDS011;61975;48.660;10.164;2022-12-18T00:06:52;29.10;;;10.77;;
73675;SDS011;61975;48.660;10.164;2022-12-18T00:09:18;31.67;;;10.85;;
73675;SDS011;61975;48.660;10.164;2022-12-18T00:11:44;30.20;;;11.38;;
73675;SDS011;61975;48.660;10.164;2022-12-18T00:14:10;35.13;;;11.37;;
73675;SDS011;61975;48.660;10.164;2022-12-18T00:16:36;31.65;;;11.20;;
73675;SDS011;61975;48.660;10.164;2022-12-18T00:19:02;26.67;;;10.60;;
73675;SDS011;61975;48.660;10.164;2022-12-18T00:21:30;30.95;;;10.57;;
73675;SDS011;61975;48.660;10.164;2022-12-18T00:23:56;36.42;;;10.95;;
73675;SDS011;61975;48.660;10.164;2022-12-18T00:26:24;28.60;;;10.17;;
73675;SDS011;61975;48.660;10.164;2022-12-18T00:28:51;27.83;;;12.27;;
73675;SDS011;61975;48.660;10.164;2022-12-18T00:31:22;35.85;;;10.75;;
73675;SDS011;61975;48.660;10.164;2022-12-18T00:33:48;28.20;;;10.80;;
73675;SDS011;61975;48.660;10.164;2022-12-18T00:36:21;29.17;;;9.40;;
73675;SDS011;61975;48.660;10.164;2022-12-18T00:38:48;28.60;;;10.27;;
73675;SDS011;61975;48.660;10.164;2022-12-18T00:41:15;26.48;;;9.70;;
73675;SDS011;61975;48.660;10.164;2022-12-18T00:44:01;22.60;;;9.13;;
73675;SDS011;61975;48.660;10.164;2022-12-18T00:46:28;29.40;;;10.32;;
73675;SDS011;61975;48.660;10.164;2022-12-18T00:48:53;30.15;;;10.25;;
73675;SDS011;61975;48.660;10.164;2022-12-18T00:51:19;31.55;;;10.57;;
73675;SDS011;61975;48.660;10.164;2022-12-18T00:53:44;33.60;;;10.73;;
73675;SDS011;61975;48.660;10.164;2022-12-18T00:56:09;28.70;;;9.30;;
73675;SDS011;61975;48.660;10.164;2022-12-18T00:58:35;28.87;;;9.40;;
73675;SDS011;61975;48.660;10.164;2022-12-18T01:01:00;25.90;;;9.23;;
73675;SDS011;61975;48.660;10.164;2022-12-18T01:03:25;22.63;;;8.00;;
73675;SDS011;61975;48.660;10.164;2022-12-18T01:05:51;30.57;;;10.80;;
73675;SDS011;61975;48.660;10.164;2022-12-18T01:08:16;29.50;;;9.20;;
73675;SDS011;61975;48.660;10.164;2022-12-18T01:10:41;32.85;;;10.43;;
73675;SDS011;61975;48.660;10.164;2022-12-18T01:13:07;27.50;;;9.30;;
73675;SDS011;61975;48.660;10.164;2022-12-18T01:15:32;28.67;;;9.87;;
73675;SDS011;61975;48.660;10.164;2022-12-18T01:17:58;28.43;;;9.30;;
73675;SDS011;61975;48.660;10.164;2022-12-18T01:20:23;29.67;;;10.07;;
73675;SDS011;61975;48.660;10.164;2022-12-18T01:22:48;29.27;;;9.77;;
73675;SDS011;61975;48.660;10.164;2022-12-18T01:25:14;27.33;;;9.47;;
73675;SDS011;61975;48.660;10.164;2022-12-18T01:27:39;26.50;;;9.05;;
73675;SDS011;61975;48.660;10.164;2022-12-18T01:30:05;27.53;;;9.27;;
73675;SDS011;61975;48.660;10.164;2022-12-18T01:32:31;27.92;;;9.32;;
73675;SDS011;61975;48.660;10.164;2022-12-18T01:34:57;29.30;;;8.93;;
73675;SDS011;61975;48.660;10.164;2022-12-18T01:37:22;24.40;;;9.73;;
73675;SDS011;61975;48.660;10.164;2022-12-18T01:39:48;26.13;;;9.07;;
73675;SDS011;61975;48.660;10.164;2022-12-18T01:42:15;25.17;;;8.70;;
73675;SDS011;61975;48.660;10.164;2022-12-18T01:47:48;25.15;;;9.52;;
73675;SDS011;61975;48.660;10.164;2022-12-18T01:52:42;30.00;;;9.77;;
73675;SDS011;61975;48.660;10.164;2022-12-18T01:55:11;32.45;;;9.13;;
73675;SDS011;61975;48.660;10.164;2022-12-18T01:57:40;25.42;;;9.15;;
73675;SDS011;61975;48.660;10.164;2022-12-18T02:00:10;32.23;;;10.57;;
73675;SDS011;61975;48.660;10.164;2022-12-18T02:02:41;26.48;;;8.98;;
73675;SDS011;61975;48.660;10.164;2022-12-18T02:05:08;28.52;;;8.20;;
73675;SDS011;61975;48.660;10.164;2022-12-18T02:07:37;26.25;;;8.13;;
73675;SDS011;61975;48.660;10.164;2022-12-18T02:18:58;28.83;;;8.77;;
73675;SDS011;61975;48.660;10.164;2022-12-18T02:26:53;22.43;;;8.37;;
73675;SDS011;61975;48.660;10.164;2022-12-18T02:29:24;28.15;;;8.45;;
73675;SDS011;61975;48.660;10.164;2022-12-18T02:31:54;24.33;;;8.20;;
73675;SDS011;61975;48.660;10.164;2022-12-18T02:34:23;26.88;;;8.23;;
73675;SDS011;61975;48.660;10.164;2022-12-18T02:36:53;25.05;;;7.97;;
73675;SDS011;61975;48.660;10.164;2022-12-18T02:39:21;25.83;;;8.73;;
73675;SDS011;61975;48.660;10.164;2022-12-18T02:41:50;26.95;;;8.57;;
73675;SDS011;61975;48.660;10.164;2022-12-18T02:44:15;31.00;;;8.88;;
73675;SDS011;61975;48.660;10.164;2022-12-18T02:46:42;24.97;;;7.93;;
73675;SDS011;61975;48.660;10.164;2022-12-18T02:49:13;25.67;;;8.73;;
73675;SDS011;61975;48.660;10.164;2022-12-18T02:52:07;30.50;;;8.90;;
73675;SDS011;61975;48.660;10.164;2022-12-18T03:01:05;28.35;;;8.43;;
73675;SDS011;61975;48.660;10.164;2022-12-18T03:03:24;26.90;;;9.73;;
73675;SDS011;61975;48.660;10.164;2022-12-18T03:06:14;31.35;;;9.63;;
73675;SDS011;61975;48.660;10.164;2022-12-18T03:08:48;29.13;;;9.50;;
73675;SDS011;61975;48.660;10.164;2022-12-18T03:11:18;28.88;;;8.95;;
73675;SDS011;61975;48.660;10.164;2022-12-18T03:14:04;27.13;;;8.70;;
73675;SDS011;61975;48.660;10.164;2022-12-18T03:16:32;28.63;;;9.17;;
73675;SDS011;61975;48.660;10.164;2022-12-18T03:19:01;34.92;;;9.63;;
73675;SDS011;61975;48.660;10.164;2022-12-18T03:21:41;26.77;;;8.25;;
73675;SDS011;61975;48.660;10.164;2022-12-18T03:24:10;32.83;;;8.65;;
73675;SDS011;61975;48.660;10.164;2022-12-18T03:26:37;28.08;;;8.45;;
73675;SDS011;61975;48.660;10.164;2022-12-18T03:29:08;29.07;;;8.37;;
73675;SDS011;61975;48.660;10.164;2022-12-18T03:31:39;29.80;;;9.70;;
73675;SDS011;61975;48.660;10.164;2022-12-18T03:34:17;29.42;;;9.27;;
73675;SDS011;61975;48.660;10.164;2022-12-18T03:36:47;27.77;;;8.73;;
73675;SDS011;61975;48.660;10.164;2022-12-18T03:39:13;27.17;;;8.53;;
73675;SDS011;61975;48.660;10.164;2022-12-18T03:42:25;32.80;;;9.20;;
73675;SDS011;61975;48.660;10.164;2022-12-18T03:50:22;21.75;;;7.35;;
73675;SDS011;61975;48.660;10.164;2022-12-18T03:53:23;26.45;;;7.25;;
73675;SDS011;61975;48.660;10.164;2022-12-18T03:55:49;29.35;;;8.63;;
73675;SDS011;61975;48.660;10.164;2022-12-18T03:58:17;27.63;;;7.77;;
73675;SDS011;61975;48.660;10.164;2022-12-18T04:00:45;22.60;;;7.55;;
73675;SDS011;61975;48.660;10.164;2022-12-18T04:03:12;30.65;;;9.25;;
73675;SDS011;61975;48.660;10.164;2022-12-18T04:05:39;30.48;;;9.43;;
73675;SDS011;61975;48.660;10.164;2022-12-18T04:08:08;25.73;;;8.68;;
73675;SDS011;61975;48.660;10.164;2022-12-18T04:10:33;28.27;;;7.87;;
73675;SDS011;61975;48.660;10.164;2022-12-18T04:12:58;26.43;;;8.03;;
73675;SDS011;61975;48.660;10.164;2022-12-18T04:15:24;29.87;;;7.60;;
73675;SDS011;61975;48.660;10.164;2022-12-18T04:17:49;26.33;;;7.93;;
73675;SDS011;61975;48.660;10.164;2022-12-18T04:20:15;28.02;;;8.23;;
73675;SDS011;61975;48.660;10.164;2022-12-18T04:22:41;32.50;;;8.93;;
73675;SDS011;61975;48.660;10.164;2022-12-18T04:25:07;34.13;;;9.40;;
73675;SDS011;61975;48.660;10.164;2022-12-18T04:27:33;30.08;;;9.18;;
73675;SDS011;61975;48.660;10.164;2022-12-18T04:29:59;30.20;;;9.30;;
73675;SDS011;61975;48.660;10.164;2022-12-18T04:32:24;26.90;;;8.48;;
73675;SDS011;61975;48.660;10.164;2022-12-18T04:34:50;27.40;;;7.95;;
73675;SDS011;61975;48.660;10.164;2022-12-18T04:37:15;24.47;;;8.17;;
73675;SDS011;61975;48.660;10.164;2022-12-18T04:39:40;22.90;;;7.70;;
73675;SDS011;61975;48.660;10.164;2022-12-18T04:42:06;28.23;;;8.63;;
73675;SDS011;61975;48.660;10.164;2022-12-18T04:44:31;33.33;;;9.60;;
73675;SDS011;61975;48.660;10.164;2022-12-18T04:46:56;24.77;;;8.17;;
73675;SDS011;61975;48.660;10.164;2022-12-18T04:49:22;29.00;;;8.38;;
73675;SDS011;61975;48.660;10.164;2022-12-18T04:51:47;27.70;;;8.03;;
73675;SDS011;61975;48.660;10.164;2022-12-18T04:54:13;34.27;;;9.13;;
73675;SDS011;61975;48.660;10.164;2022-12-18T04:56:38;26.40;;;7.80;;
73675;SDS011;61975;48.660;10.164;2022-12-18T04:59:03;24.67;;;8.57;;
73675;SDS011;61975;48.660;10.164;2022-12-18T05:01:29;26.80;;;7.55;;
73675;SDS011;61975;48.660;10.164;2022-12-18T05:03:55;28.40;;;7.87;;
73675;SDS011;61975;48.660;10.164;2022-12-18T05:06:20;29.83;;;9.07;;
73675;SDS011;61975;48.660;10.164;2022-12-18T05:08:45;33.40;;;9.35;;
73675;SDS011;61975;48.660;10.164;2022-12-18T05:11:12;30.40;;;8.33;;
73675;SDS011;61975;48.660;10.164;2022-12-18T05:13:40;27.90;;;8.20;;
73675;SDS011;61975;48.660;10.164;2022-12-18T05:16:06;27.23;;;8.10;;
73675;SDS011;61975;48.660;10.164;2022-12-18T05:18:32;27.35;;;8.57;;
73675;SDS011;61975;48.660;10.164;2022-12-18T05:20:57;29.10;;;8.23;;
73675;SDS011;61975;48.660;10.164;2022-12-18T05:23:23;24.40;;;8.07;;
73675;SDS011;61975;48.660;10.164;2022-12-18T05:28:19;28.13;;;7.82;;
73675;SDS011;61975;48.660;10.164;2022-12-18T05:30:52;24.23;;;7.60;;
73675;SDS011;61975;48.660;10.164;2022-12-18T05:33:18;24.57;;;7.77;;
73675;SDS011;61975;48.660;10.164;2022-12-18T05:35:50;21.75;;;7.45;;
73675;SDS011;61975;48.660;10.164;2022-12-18T05:38:17;31.70;;;7.60;;
73675;SDS011;61975;48.660;10.164;2022-12-18T05:40:42;24.73;;;7.35;;
73675;SDS011;61975;48.660;10.164;2022-12-18T05:43:08;28.17;;;7.87;;
73675;SDS011;61975;48.660;10.164;2022-12-18T05:45:36;23.98;;;7.30;;
73675;SDS011;61975;48.660;10.164;2022-12-18T05:48:03;23.80;;;7.05;;
73675;SDS011;61975;48.660;10.164;2022-12-18T05:50:28;28.60;;;8.23;;
73675;SDS011;61975;48.660;10.164;2022-12-18T05:52:54;25.35;;;7.40;;
73675;SDS011;61975;48.660;10.164;2022-12-18T05:55:19;28.40;;;7.43;;
73675;SDS011;61975;48.660;10.164;2022-12-18T05:57:45;23.33;;;6.23;;
73675;SDS011;61975;48.660;10.164;2022-12-18T06:00:10;26.17;;;7.83;;
73675;SDS011;61975;48.660;10.164;2022-12-18T06:02:36;24.30;;;7.25;;
73675;SDS011;61975;48.660;10.164;2022-12-18T06:05:02;24.97;;;7.83;;
73675;SDS011;61975;48.660;10.164;2022-12-18T06:07:27;25.30;;;7.37;;
73675;SDS011;61975;48.660;10.164;2022-12-18T06:09:52;28.65;;;7.72;;
73675;SDS011;61975;48.660;10.164;2022-12-18T06:12:18;25.67;;;7.17;;
73675;SDS011;61975;48.660;10.164;2022-12-18T06:14:43;25.20;;;7.53;;
73675;SDS011;61975;48.660;10.164;2022-12-18T06:17:09;24.60;;;6.50;;
73675;SDS011;61975;48.660;10.164;2022-12-18T06:19:34;22.30;;;7.53;;
73675;SDS011;61975;48.660;10.164;2022-12-18T06:22:00;24.95;;;7.65;;
73675;SDS011;61975;48.660;10.164;2022-12-18T06:24:25;26.83;;;8.03;;
73675;SDS011;61975;48.660;10.164;2022-12-18T06:26:50;25.87;;;7.73;;
73675;SDS011;61975;48.660;10.164;2022-12-18T06:29:16;28.37;;;7.67;;
73675;SDS011;61975;48.660;10.164;2022-12-18T06:31:41;25.70;;;8.13;;
73675;SDS011;61975;48.660;10.164;2022-12-18T06:34:07;22.25;;;6.53;;
73675;SDS011;61975;48.660;10.164;2022-12-18T06:36:32;24.03;;;7.10;;
73675;SDS011;61975;48.660;10.164;2022-12-18T06:38:58;25.80;;;8.23;;
73675;SDS011;61975;48.660;10.164;2022-12-18T06:41:24;23.95;;;7.07;;
73675;SDS011;61975;48.660;10.164;2022-12-18T06:43:49;23.67;;;7.20;;
73675;SDS011;61975;48.660;10.164;2022-12-18T06:46:15;23.40;;;6.90;;
73675;SDS011;61975;48.660;10.164;2022-12-18T06:48:40;24.05;;;6.78;;
73675;SDS011;61975;48.660;10.164;2022-12-18T06:51:06;24.40;;;6.70;;
73675;SDS011;61975;48.660;10.164;2022-12-18T06:53:32;22.23;;;6.70;;
73675;SDS011;61975;48.660;10.164;2022-12-18T06:56:01;22.83;;;7.45;;
73675;SDS011;61975;48.660;10.164;2022-12-18T06:58:31;21.75;;;7.10;;
73675;SDS011;61975;48.660;10.164;2022-12-18T07:01:00;25.17;;;7.65;;
73675;SDS011;61975;48.660;10.164;2022-12-18T07:03:29;20.73;;;6.67;;
73675;SDS011;61975;48.660;10.164;2022-12-18T07:05:55;18.40;;;6.70;;
73675;SDS011;61975;48.660;10.164;2022-12-18T07:08:20;24.30;;;7.40;;
73675;SDS011;61975;48.660;10.164;2022-12-18T07:10:46;25.90;;;7.55;;
73675;SDS011;61975;48.660;10.164;2022-12-18T07:13:14;26.13;;;7.78;;
73675;SDS011;61975;48.660;10.164;2022-12-18T07:15:40;27.97;;;8.40;;
73675;SDS011;61975;48.660;10.164;2022-12-18T07:18:05;26.30;;;7.65;;
73675;SDS011;61975;48.660;10.164;2022-12-18T07:20:30;26.38;;;6.68;;
73675;SDS011;61975;48.660;10.164;2022-12-18T07:22:56;20.93;;;6.93;;
73675;SDS011;61975;48.660;10.164;2022-12-18T07:25:21;26.53;;;8.17;;
73675;SDS011;61975;48.660;10.164;2022-12-18T07:27:46;26.87;;;7.73;;
73675;SDS011;61975;48.660;10.164;2022-12-18T07:30:12;26.47;;;7.33;;
73675;SDS011;61975;48.660;10.164;2022-12-18T07:32:37;25.17;;;7.80;;
73675;SDS011;61975;48.660;10.164;2022-12-18T07:35:03;22.67;;;7.47;;
73675;SDS011;61975;48.660;10.164;2022-12-18T07:37:28;28.17;;;8.57;;
73675;SDS011;61975;48.660;10.164;2022-12-18T07:39:54;28.00;;;8.10;;
73675;SDS011;61975;48.660;10.164;2022-12-18T07:42:19;26.75;;;8.55;;
73675;SDS011;61975;48.660;10.164;2022-12-18T07:44:59;27.83;;;9.33;;
73675;SDS011;61975;48.660;10.164;2022-12-18T07:47:26;21.75;;;7.18;;
73675;SDS011;61975;48.660;10.164;2022-12-18T07:49:52;19.55;;;7.03;;
73675;SDS011;61975;48.660;10.164;2022-12-18T07:52:17;21.93;;;6.67;;
73675;SDS011;61975;48.660;10.164;2022-12-18T07:54:42;22.33;;;6.23;;
73675;SDS011;61975;48.660;10.164;2022-12-18T07:57:08;24.67;;;7.90;;
73675;SDS011;61975;48.660;10.164;2022-12-18T07:59:34;25.80;;;7.80;;
73675;SDS011;61975;48.660;10.164;2022-12-18T08:01:59;22.67;;;7.22;;
73675;SDS011;61975;48.660;10.164;2022-12-18T08:04:25;24.43;;;8.00;;
73675;SDS011;61975;48.660;10.164;2022-12-18T08:06:50;25.63;;;7.67;;
73675;SDS011;61975;48.660;10.164;2022-12-18T08:09:16;31.23;;;7.80;;
73675;SDS011;61975;48.660;10.164;2022-12-18T08:11:41;28.45;;;8.00;;
73675;SDS011;61975;48.660;10.164;2022-12-18T08:14:07;25.53;;;7.47;;
73675;SDS011;61975;48.660;10.164;2022-12-18T08:16:33;27.10;;;6.73;;
73675;SDS011;61975;48.660;10.164;2022-12-18T08:18:58;25.27;;;7.20;;
73675;SDS011;61975;48.660;10.164;2022-12-18T08:21:25;23.90;;;7.83;;
73675;SDS011;61975;48.660;10.164;2022-12-18T08:23:52;25.92;;;8.30;;
73675;SDS011;61975;48.660;10.164;2022-12-18T08:26:19;25.23;;;7.90;;
73675;SDS011;61975;48.660;10.164;2022-12-18T08:28:44;26.02;;;7.00;;
73675;SDS011;61975;48.660;10.164;2022-12-18T08:31:10;27.52;;;8.43;;
73675;SDS011;61975;48.660;10.164;2022-12-18T08:33:36;30.13;;;7.90;;
73675;SDS011;61975;48.660;10.164;2022-12-18T08:36:03;23.25;;;7.10;;
73675;SDS011;61975;48.660;10.164;2022-12-18T08:38:29;28.73;;;8.23;;
73675;SDS011;61975;48.660;10.164;2022-12-18T08:40:58;27.30;;;8.50;;
73675;SDS011;61975;48.660;10.164;2022-12-18T08:43:25;27.27;;;7.72;;
73675;SDS011;61975;48.660;10.164;2022-12-18T08:46:09;28.37;;;9.50;;
73675;SDS011;61975;48.660;10.164;2022-12-18T08:48:34;28.35;;;8.13;;
73675;SDS011;61975;48.660;10.164;2022-12-18T08:51:00;29.53;;;8.33;;
73675;SDS011;61975;48.660;10.164;2022-12-18T08:53:26;29.55;;;7.88;;
73675;SDS011;61975;48.660;10.164;2022-12-18T08:55:52;25.30;;;8.43;;
73675;SDS011;61975;48.660;10.164;2022-12-18T08:58:18;30.02;;;8.43;;
73675;SDS011;61975;48.660;10.164;2022-12-18T09:00:44;31.23;;;10.02;;
73675;SDS011;61975;48.660;10.164;2022-12-18T09:03:13;24.53;;;7.40;;
73675;SDS011;61975;48.660;10.164;2022-12-18T09:05:40;24.88;;;8.05;;
73675;SDS011;61975;48.660;10.164;2022-12-18T09:08:05;26.58;;;7.85;;
73675;SDS011;61975;48.660;10.164;2022-12-18T09:10:31;20.13;;;7.53;;
73675;SDS011;61975;48.660;10.164;2022-12-18T09:12:57;31.97;;;9.60;;
73675;SDS011;61975;48.660;10.164;2022-12-18T09:15:22;33.72;;;9.85;;
73675;SDS011;61975;48.660;10.164;2022-12-18T09:17:48;27.43;;;7.97;;
73675;SDS011;61975;48.660;10.164;2022-12-18T09:20:15;23.65;;;7.40;;
73675;SDS011;61975;48.660;10.164;2022-12-18T09:22:43;20.97;;;6.23;;
73675;SDS011;61975;48.660;10.164;2022-12-18T09:25:09;23.52;;;7.43;;
73675;SDS011;61975;48.660;10.164;2022-12-18T09:27:34;23.07;;;7.63;;
73675;SDS011;61975;48.660;10.164;2022-12-18T09:30:00;27.87;;;7.73;;
73675;SDS011;61975;48.660;10.164;2022-12-18T09:32:26;24.45;;;8.07;;
73675;SDS011;61975;48.660;10.164;2022-12-18T09:34:51;21.87;;;7.20;;
73675;SDS011;61975;48.660;10.164;2022-12-18T09:37:17;25.17;;;8.50;;
73675;SDS011;61975;48.660;10.164;2022-12-18T09:39:42;28.20;;;7.80;;
73675;SDS011;61975;48.660;10.164;2022-12-18T09:42:09;25.20;;;7.50;;
73675;SDS011;61975;48.660;10.164;2022-12-18T09:44:45;28.25;;;8.05;;
73675;SDS011;61975;48.660;10.164;2022-12-18T09:47:35;28.75;;;9.15;;
73675;SDS011;61975;48.660;10.164;2022-12-18T09:50:05;24.52;;;7.75;;
73675;SDS011;61975;48.660;10.164;2022-12-18T09:52:54;25.60;;;7.27;;
73675;SDS011;61975;48.660;10.164;2022-12-18T09:55:56;29.88;;;9.52;;
73675;SDS011;61975;48.660;10.164;2022-12-18T09:58:17;24.65;;;7.65;;
73675;SDS011;61975;48.660;10.164;2022-12-18T10:00:44;26.00;;;8.55;;
73675;SDS011;61975;48.660;10.164;2022-12-18T10:03:11;28.17;;;8.30;;
73675;SDS011;61975;48.660;10.164;2022-12-18T10:10:53;26.92;;;8.88;;
73675;SDS011;61975;48.660;10.164;2022-12-18T10:13:32;23.83;;;8.00;;
73675;SDS011;61975;48.660;10.164;2022-12-18T10:16:15;28.00;;;8.45;;
73675;SDS011;61975;48.660;10.164;2022-12-18T10:27:43;27.93;;;9.40;;
73675;SDS011;61975;48.660;10.164;2022-12-18T10:30:12;24.60;;;7.60;;
73675;SDS011;61975;48.660;10.164;2022-12-18T10:32:43;27.75;;;7.85;;
73675;SDS011;61975;48.660;10.164;2022-12-18T10:35:17;24.10;;;8.27;;
73675;SDS011;61975;48.660;10.164;2022-12-18T10:43:24;26.20;;;8.20;;
73675;SDS011;61975;48.660;10.164;2022-12-18T10:46:18;21.52;;;7.72;;
73675;SDS011;61975;48.660;10.164;2022-12-18T10:51:23;23.95;;;7.82;;
73675;SDS011;61975;48.660;10.164;2022-12-18T10:54:06;26.05;;;8.00;;
73675;SDS011;61975;48.660;10.164;2022-12-18T10:56:40;28.60;;;9.10;;
73675;SDS011;61975;48.660;10.164;2022-12-18T10:59:07;26.10;;;8.32;;
73675;SDS011;61975;48.660;10.164;2022-12-18T11:04:24;27.17;;;8.05;;
73675;SDS011;61975;48.660;10.164;2022-12-18T11:09:27;22.57;;;7.10;;
73675;SDS011;61975;48.660;10.164;2022-12-18T11:11:57;29.42;;;8.02;;
73675;SDS011;61975;48.660;10.164;2022-12-18T11:14:28;29.15;;;8.38;;
73675;SDS011;61975;48.660;10.164;2022-12-18T11:16:56;25.52;;;7.90;;
73675;SDS011;61975;48.660;10.164;2022-12-18T11:19:36;27.95;;;9.13;;
73675;SDS011;61975;48.660;10.164;2022-12-18T11:22:18;26.17;;;8.00;;
73675;SDS011;61975;48.660;10.164;2022-12-18T11:25:04;27.15;;;7.68;;
73675;SDS011;61975;48.660;10.164;2022-12-18T11:27:31;32.22;;;9.27;;
73675;SDS011;61975;48.660;10.164;2022-12-18T11:30:08;27.35;;;9.00;;
73675;SDS011;61975;48.660;10.164;2022-12-18T11:32:37;30.13;;;10.17;;
73675;SDS011;61975;48.660;10.164;2022-12-18T11:37:59;27.13;;;8.35;;
73675;SDS011;61975;48.660;10.164;2022-12-18T11:40:35;37.08;;;10.55;;
73675;SDS011;61975;48.660;10.164;2022-12-18T11:45:52;27.20;;;8.40;;
73675;SDS011;61975;48.660;10.164;2022-12-18T11:48:30;30.77;;;9.40;;
73675;SDS011;61975;48.660;10.164;2022-12-18T11:50:58;27.73;;;8.63;;
73675;SDS011;61975;48.660;10.164;2022-12-18T11:53:26;35.92;;;9.75;;
73675;SDS011;61975;48.660;10.164;2022-12-18T12:01:45;25.80;;;8.25;;
73675;SDS011;61975;48.660;10.164;2022-12-18T12:09:49;28.35;;;8.38;;
73675;SDS011;61975;48.660;10.164;2022-12-18T12:17:49;28.20;;;9.10;;
73675;SDS011;61975;48.660;10.164;2022-12-18T12:20:46;31.45;;;9.45;;
73675;SDS011;61975;48.660;10.164;2022-12-18T12:23:42;26.80;;;7.55;;
73675;SDS011;61975;48.660;10.164;2022-12-18T12:29:09;22.08;;;7.60;;
73675;SDS011;61975;48.660;10.164;2022-12-18T12:40:01;27.50;;;8.77;;
73675;SDS011;61975;48.660;10.164;2022-12-18T12:48:33;22.65;;;7.60;;
73675;SDS011;61975;48.660;10.164;2022-12-18T12:51:00;32.50;;;11.73;;
73675;SDS011;61975;48.660;10.164;2022-12-18T12:53:35;34.23;;;10.93;;
73675;SDS011;61975;48.660;10.164;2022-12-18T12:56:02;36.58;;;13.05;;
73675;SDS011;61975;48.660;10.164;2022-12-18T13:02:10;32.92;;;10.35;;
73675;SDS011;61975;48.660;10.164;2022-12-18T13:07:33;34.30;;;10.97;;
73675;SDS011;61975;48.660;10.164;2022-12-18T13:18:32;38.45;;;10.38;;
73675;SDS011;61975;48.660;10.164;2022-12-18T13:25:50;31.80;;;8.93;;
73675;SDS011;61975;48.660;10.164;2022-12-18T13:28:24;29.67;;;9.10;;
73675;SDS011;61975;48.660;10.164;2022-12-18T13:31:11;34.03;;;9.32;;
73675;SDS011;61975;48.660;10.164;2022-12-18T13:34:11;30.90;;;8.77;;
73675;SDS011;61975;48.660;10.164;2022-12-18T13:36:41;28.13;;;9.13;;
73675;SDS011;61975;48.660;10.164;2022-12-18T13:41:47;31.38;;;9.35;;
73675;SDS011;61975;48.660;10.164;2022-12-18T13:46:59;30.67;;;8.85;;
73675;SDS011;61975;48.660;10.164;2022-12-18T13:49:36;33.43;;;9.87;;
73675;SDS011;61975;48.660;10.164;2022-12-18T13:52:15;23.95;;;8.20;;
73675;SDS011;61975;48.660;10.164;2022-12-18T13:54:43;31.98;;;8.60;;
73675;SDS011;61975;48.660;10.164;2022-12-18T14:02:44;29.20;;;9.10;;
73675;SDS011;61975;48.660;10.164;2022-12-18T14:08:12;24.05;;;7.70;;
73675;SDS011;61975;48.660;10.164;2022-12-18T14:10:43;24.65;;;8.25;;
73675;SDS011;61975;48.660;10.164;2022-12-18T14:13:14;29.33;;;9.15;;
73675;SDS011;61975;48.660;10.164;2022-12-18T14:15:46;25.37;;;9.47;;
73675;SDS011;61975;48.660;10.164;2022-12-18T14:21:00;26.77;;;8.98;;
73675;SDS011;61975;48.660;10.164;2022-12-18T14:23:41;36.20;;;9.60;;
73675;SDS011;61975;48.660;10.164;2022-12-18T14:28:44;26.70;;;8.93;;
73675;SDS011;61975;48.660;10.164;2022-12-18T14:31:19;25.58;;;8.80;;
73675;SDS011;61975;48.660;10.164;2022-12-18T14:33:46;27.73;;;7.97;;
73675;SDS011;61975;48.660;10.164;2022-12-18T14:36:15;23.20;;;7.77;;
73675;SDS011;61975;48.660;10.164;2022-12-18T14:38:50;33.55;;;8.93;;
73675;SDS011;61975;48.660;10.164;2022-12-18T14:41:18;31.47;;;9.23;;
73675;SDS011;61975;48.660;10.164;2022-12-18T14:43:46;29.52;;;9.07;;
73675;SDS011;61975;48.660;10.164;2022-12-18T14:46:32;32.55;;;10.60;;
73675;SDS011;61975;48.660;10.164;2022-12-18T14:49:32;32.20;;;9.82;;
73675;SDS011;61975;48.660;10.164;2022-12-18T14:51:58;27.02;;;8.70;;
73675;SDS011;61975;48.660;10.164;2022-12-18T14:54:25;26.20;;;8.83;;
73675;SDS011;61975;48.660;10.164;2022-12-18T14:56:59;31.40;;;8.82;;
73675;SDS011;61975;48.660;10.164;2022-12-18T14:59:27;29.35;;;8.90;;
73675;SDS011;61975;48.660;10.164;2022-12-18T15:04:41;29.00;;;8.80;;
73675;SDS011;61975;48.660;10.164;2022-12-18T15:07:21;30.53;;;9.03;;
73675;SDS011;61975;48.660;10.164;2022-12-18T15:12:40;26.30;;;8.88;;
73675;SDS011;61975;48.660;10.164;2022-12-18T15:18:15;32.33;;;8.73;;
73675;SDS011;61975;48.660;10.164;2022-12-18T15:25:58;31.27;;;9.10;;
73675;SDS011;61975;48.660;10.164;2022-12-18T15:28:26;30.45;;;8.77;;
73675;SDS011;61975;48.660;10.164;2022-12-18T15:31:19;23.17;;;7.55;;
73675;SDS011;61975;48.660;10.164;2022-12-18T15:36:22;26.98;;;9.02;;
73675;SDS011;61975;48.660;10.164;2022-12-18T15:38:49;26.63;;;9.17;;
73675;SDS011;61975;48.660;10.164;2022-12-18T15:41:16;30.92;;;9.27;;
73675;SDS011;61975;48.660;10.164;2022-12-18T15:43:43;29.33;;;8.18;;
73675;SDS011;61975;48.660;10.164;2022-12-18T15:46:13;35.65;;;10.07;;
73675;SDS011;61975;48.660;10.164;2022-12-18T15:48:40;26.52;;;7.32;;
73675;SDS011;61975;48.660;10.164;2022-12-18T15:51:14;31.30;;;8.90;;
73675;SDS011;61975;48.660;10.164;2022-12-18T15:53:43;28.05;;;8.80;;
73675;SDS011;61975;48.660;10.164;2022-12-18T15:56:12;32.58;;;9.32;;
73675;SDS011;61975;48.660;10.164;2022-12-18T15:58:57;25.77;;;8.20;;
73675;SDS011;61975;48.660;10.164;2022-12-18T16:01:23;31.13;;;8.60;;
73675;SDS011;61975;48.660;10.164;2022-12-18T16:03:51;26.42;;;9.07;;
73675;SDS011;61975;48.660;10.164;2022-12-18T16:06:16;31.30;;;8.23;;
73675;SDS011;61975;48.660;10.164;2022-12-18T16:08:42;33.73;;;8.83;;
73675;SDS011;61975;48.660;10.164;2022-12-18T16:11:49;29.47;;;8.90;;
73675;SDS011;61975;48.660;10.164;2022-12-18T16:16:47;31.02;;;9.65;;
73675;SDS011;61975;48.660;10.164;2022-12-18T16:19:14;26.08;;;8.10;;
73675;SDS011;61975;48.660;10.164;2022-12-18T16:21:41;33.13;;;9.27;;
73675;SDS011;61975;48.660;10.164;2022-12-18T16:24:20;29.63;;;9.00;;
73675;SDS011;61975;48.660;10.164;2022-12-18T16:26:48;23.23;;;8.13;;
73675;SDS011;61975;48.660;10.164;2022-12-18T16:29:14;28.35;;;8.95;;
73675;SDS011;61975;48.660;10.164;2022-12-18T16:31:40;23.23;;;8.30;;
73675;SDS011;61975;48.660;10.164;2022-12-18T16:34:09;24.45;;;7.68;;
73675;SDS011;61975;48.660;10.164;2022-12-18T16:36:55;30.55;;;8.25;;
73675;SDS011;61975;48.660;10.164;2022-12-18T16:39:21;22.80;;;8.07;;
73675;SDS011;61975;48.660;10.164;2022-12-18T16:41:47;21.77;;;8.68;;
73675;SDS011;61975;48.660;10.164;2022-12-18T16:44:13;25.30;;;8.60;;
73675;SDS011;61975;48.660;10.164;2022-12-18T16:46:39;25.42;;;8.55;;
73675;SDS011;61975;48.660;10.164;2022-12-18T16:49:08;24.88;;;7.50;;
73675;SDS011;61975;48.660;10.164;2022-12-18T16:51:35;26.37;;;8.00;;
73675;SDS011;61975;48.660;10.164;2022-12-18T16:54:00;24.70;;;7.43;;
73675;SDS011;61975;48.660;10.164;2022-12-18T16:56:26;31.00;;;8.90;;
73675;SDS011;61975;48.660;10.164;2022-12-18T16:58:56;32.38;;;8.90;;
73675;SDS011;61975;48.660;10.164;2022-12-18T17:01:26;29.40;;;10.13;;
73675;SDS011;61975;48.660;10.164;2022-12-18T17:03:59;28.05;;;7.80;;
73675;SDS011;61975;48.660;10.164;2022-12-18T17:06:29;25.35;;;8.02;;
73675;SDS011;61975;48.660;10.164;2022-12-18T17:08:57;27.55;;;8.13;;
73675;SDS011;61975;48.660;10.164;2022-12-18T17:11:24;32.50;;;8.10;;
73675;SDS011;61975;48.660;10.164;2022-12-18T17:13:50;27.17;;;8.07;;